sensor_id;sensor_type;location;lat;lon;timestamp;P1;durP1;ratioP1;P2;durP2;ratioP2
44764;SDS011;30484;52.382;5.260;2023-04-24T00:00:19;9.32;;;5.47;;
44764;SDS011;30484;52.382;5.260;2023-04-24T00:02:48;7.03;;;5.30;;
44764;SDS011;30484;52.382;5.260;2023-04-24T00:05:24;8.68;;;5.88;;
44764;SDS011;30484;52.382;5.260;2023-04-24T00:07:54;8.40;;;6.90;;
44764;SDS011;30484;52.382;5.260;2023-04-24T00:10:29;9.40;;;6.95;;
44764;SDS011;30484;52.382;5.260;2023-04-24T00:12:58;11.25;;;8.07;;
44764;SDS011;30484;52.382;5.260;2023-04-24T00:15:27;11.18;;;8.70;;
44764;SDS011;30484;52.382;5.260;2023-04-24T00:17:57;13.05;;;8.52;;
44764;SDS011;30484;52.382;5.260;2023-04-24T00:20:30;11.90;;;9.05;;
44764;SDS011;30484;52.382;5.260;2023-04-24T00:23:02;12.98;;;8.63;;
44764;SDS011;30484;52.382;5.260;2023-04-24T00:25:36;13.40;;;9.52;;
44764;SDS011;30484;52.382;5.260;2023-04-24T00:28:06;14.70;;;10.07;;
44764;SDS011;30484;52.382;5.260;2023-04-24T00:30:37;13.93;;;10.93;;
44764;SDS011;30484;52.382;5.260;2023-04-24T00:33:10;12.50;;;10.05;;
44764;SDS011;30484;52.382;5.260;2023-04-24T00:35:41;13.23;;;10.55;;
44764;SDS011;30484;52.382;5.260;2023-04-24T00:38:11;14.00;;;9.48;;
44764;SDS011;30484;52.382;5.260;2023-04-24T00:40:43;13.43;;;9.60;;
44764;SDS011;30484;52.382;5.260;2023-04-24T00:43:15;12.63;;;10.32;;
44764;SDS011;30484;52.382;5.260;2023-04-24T00:45:45;13.98;;;11.85;;
44764;SDS011;30484;52.382;5.260;2023-04-24T00:48:18;15.27;;;11.88;;
44764;SDS011;30484;52.382;5.260;2023-04-24T00:50:48;16.38;;;12.13;;
44764;SDS011;30484;52.382;5.260;2023-04-24T00:53:22;16.40;;;11.90;;
44764;SDS011;30484;52.382;5.260;2023-04-24T00:55:54;16.90;;;11.48;;
44764;SDS011;30484;52.382;5.260;2023-04-24T00:58:25;16.20;;;9.25;;
44764;SDS011;30484;52.382;5.260;2023-04-24T01:00:58;7.85;;;5.78;;
44764;SDS011;30484;52.382;5.260;2023-04-24T01:03:33;4.53;;;3.22;;
44764;SDS011;30484;52.382;5.260;2023-04-24T01:06:10;4.35;;;2.05;;
44764;SDS011;30484;52.382;5.260;2023-04-24T01:08:45;5.22;;;1.92;;
44764;SDS011;30484;52.382;5.260;2023-04-24T01:11:20;3.28;;;1.30;;
44764;SDS011;30484;52.382;5.260;2023-04-24T01:14:10;1.75;;;0.80;;
44764;SDS011;30484;52.382;5.260;2023-04-24T01:16:41;3.72;;;0.80;;
44764;SDS011;30484;52.382;5.260;2023-04-24T01:19:10;3.17;;;0.80;;
44764;SDS011;30484;52.382;5.260;2023-04-24T01:21:40;1.20;;;0.60;;
44764;SDS011;30484;52.382;5.260;2023-04-24T01:24:15;1.73;;;1.00;;
44764;SDS011;30484;52.382;5.260;2023-04-24T01:26:47;2.05;;;1.20;;
44764;SDS011;30484;52.382;5.260;2023-04-24T01:29:16;2.17;;;1.00;;
44764;SDS011;30484;52.382;5.260;2023-04-24T01:31:50;3.45;;;1.20;;
44764;SDS011;30484;52.382;5.260;2023-04-24T01:34:24;7.22;;;2.05;;
44764;SDS011;30484;52.382;5.260;2023-04-24T01:36:59;4.68;;;3.03;;
44764;SDS011;30484;52.382;5.260;2023-04-24T01:39:33;8.73;;;4.60;;
44764;SDS011;30484;52.382;5.260;2023-04-24T01:42:04;8.90;;;5.35;;
44764;SDS011;30484;52.382;5.260;2023-04-24T01:44:41;10.88;;;4.53;;
44764;SDS011;30484;52.382;5.260;2023-04-24T01:47:10;6.22;;;3.38;;
44764;SDS011;30484;52.382;5.260;2023-04-24T01:49:40;4.07;;;1.88;;
44764;SDS011;30484;52.382;5.260;2023-04-24T01:52:10;2.88;;;1.42;;
44764;SDS011;30484;52.382;5.260;2023-04-24T01:54:41;3.40;;;1.25;;
44764;SDS011;30484;52.382;5.260;2023-04-24T01:57:14;3.00;;;1.20;;
44764;SDS011;30484;52.382;5.260;2023-04-24T01:59:47;2.20;;;1.13;;
44764;SDS011;30484;52.382;5.260;2023-04-24T02:02:18;1.90;;;1.25;;
44764;SDS011;30484;52.382;5.260;2023-04-24T02:04:52;3.42;;;1.27;;
44764;SDS011;30484;52.382;5.260;2023-04-24T02:07:22;2.33;;;1.20;;
44764;SDS011;30484;52.382;5.260;2023-04-24T02:09:56;3.58;;;1.40;;
44764;SDS011;30484;52.382;5.260;2023-04-24T02:12:25;5.30;;;1.73;;
44764;SDS011;30484;52.382;5.260;2023-04-24T02:14:56;3.38;;;1.40;;
44764;SDS011;30484;52.382;5.260;2023-04-24T02:17:27;4.10;;;1.60;;
44764;SDS011;30484;52.382;5.260;2023-04-24T02:19:58;2.25;;;1.20;;
44764;SDS011;30484;52.382;5.260;2023-04-24T02:22:27;2.13;;;1.10;;
44764;SDS011;30484;52.382;5.260;2023-04-24T02:24:58;4.78;;;0.95;;
44764;SDS011;30484;52.382;5.260;2023-04-24T02:27:31;2.08;;;1.10;;
44764;SDS011;30484;52.382;5.260;2023-04-24T02:30:12;1.45;;;0.77;;
44764;SDS011;30484;52.382;5.260;2023-04-24T02:32:48;1.77;;;1.00;;
44764;SDS011;30484;52.382;5.260;2023-04-24T02:35:18;3.00;;;0.88;;
44764;SDS011;30484;52.382;5.260;2023-04-24T02:37:49;3.45;;;0.90;;
44764;SDS011;30484;52.382;5.260;2023-04-24T02:40:22;5.40;;;1.20;;
44764;SDS011;30484;52.382;5.260;2023-04-24T02:42:53;2.67;;;1.00;;
44764;SDS011;30484;52.382;5.260;2023-04-24T02:45:24;3.45;;;0.98;;
44764;SDS011;30484;52.382;5.260;2023-04-24T02:47:55;3.20;;;1.13;;
44764;SDS011;30484;52.382;5.260;2023-04-24T02:50:25;1.42;;;0.73;;
44764;SDS011;30484;52.382;5.260;2023-04-24T02:52:55;2.40;;;1.10;;
44764;SDS011;30484;52.382;5.260;2023-04-24T02:55:27;4.88;;;0.90;;
44764;SDS011;30484;52.382;5.260;2023-04-24T02:57:57;3.25;;;0.90;;
44764;SDS011;30484;52.382;5.260;2023-04-24T03:00:27;2.10;;;0.75;;
44764;SDS011;30484;52.382;5.260;2023-04-24T03:02:57;1.92;;;0.80;;
44764;SDS011;30484;52.382;5.260;2023-04-24T03:05:30;3.40;;;0.88;;
44764;SDS011;30484;52.382;5.260;2023-04-24T03:08:02;2.05;;;0.80;;
44764;SDS011;30484;52.382;5.260;2023-04-24T03:10:42;2.35;;;1.13;;
44764;SDS011;30484;52.382;5.260;2023-04-24T03:13:13;2.80;;;0.90;;
44764;SDS011;30484;52.382;5.260;2023-04-24T03:15:46;2.22;;;0.82;;
44764;SDS011;30484;52.382;5.260;2023-04-24T03:18:15;2.55;;;0.77;;
44764;SDS011;30484;52.382;5.260;2023-04-24T03:20:45;3.60;;;1.13;;
44764;SDS011;30484;52.382;5.260;2023-04-24T03:23:17;2.38;;;0.93;;
44764;SDS011;30484;52.382;5.260;2023-04-24T03:25:50;2.70;;;0.90;;
44764;SDS011;30484;52.382;5.260;2023-04-24T03:28:21;1.23;;;1.05;;
44764;SDS011;30484;52.382;5.260;2023-04-24T03:30:52;1.60;;;0.90;;
44764;SDS011;30484;52.382;5.260;2023-04-24T03:33:21;4.13;;;0.90;;
44764;SDS011;30484;52.382;5.260;2023-04-24T03:35:52;4.70;;;0.90;;
44764;SDS011;30484;52.382;5.260;2023-04-24T03:38:23;1.95;;;0.90;;
44764;SDS011;30484;52.382;5.260;2023-04-24T03:40:55;1.90;;;1.00;;
44764;SDS011;30484;52.382;5.260;2023-04-24T03:43:27;3.95;;;0.88;;
44764;SDS011;30484;52.382;5.260;2023-04-24T03:46:00;0.98;;;0.70;;
44764;SDS011;30484;52.382;5.260;2023-04-24T03:48:30;1.55;;;0.80;;
44764;SDS011;30484;52.382;5.260;2023-04-24T03:50:59;3.50;;;0.70;;
44764;SDS011;30484;52.382;5.260;2023-04-24T03:53:31;2.42;;;0.90;;
44764;SDS011;30484;52.382;5.260;2023-04-24T03:56:03;1.08;;;0.68;;
44764;SDS011;30484;52.382;5.260;2023-04-24T03:58:35;1.33;;;0.60;;
44764;SDS011;30484;52.382;5.260;2023-04-24T04:01:05;3.38;;;0.60;;
44764;SDS011;30484;52.382;5.260;2023-04-24T04:03:35;2.05;;;0.60;;
44764;SDS011;30484;52.382;5.260;2023-04-24T04:06:06;5.82;;;0.60;;
44764;SDS011;30484;52.382;5.260;2023-04-24T04:08:38;4.63;;;0.80;;
44764;SDS011;30484;52.382;5.260;2023-04-24T04:11:11;1.27;;;0.50;;
44764;SDS011;30484;52.382;5.260;2023-04-24T04:13:41;1.70;;;0.50;;
44764;SDS011;30484;52.382;5.260;2023-04-24T04:16:12;1.70;;;0.50;;
44764;SDS011;30484;52.382;5.260;2023-04-24T04:18:44;4.75;;;0.73;;
44764;SDS011;30484;52.382;5.260;2023-04-24T04:21:17;1.02;;;0.50;;
44764;SDS011;30484;52.382;5.260;2023-04-24T04:23:51;1.17;;;0.57;;
44764;SDS011;30484;52.382;5.260;2023-04-24T04:26:34;1.65;;;0.63;;
44764;SDS011;30484;52.382;5.260;2023-04-24T04:29:06;2.97;;;0.45;;
44764;SDS011;30484;52.382;5.260;2023-04-24T04:31:35;1.13;;;0.43;;
44764;SDS011;30484;52.382;5.260;2023-04-24T04:34:05;17.92;;;0.70;;
44764;SDS011;30484;52.382;5.260;2023-04-24T04:36:36;5.32;;;0.68;;
44764;SDS011;30484;52.382;5.260;2023-04-24T04:39:07;1.08;;;0.50;;
44764;SDS011;30484;52.382;5.260;2023-04-24T04:41:38;1.65;;;0.45;;
44764;SDS011;30484;52.382;5.260;2023-04-24T04:44:08;1.50;;;0.60;;
44764;SDS011;30484;52.382;5.260;2023-04-24T04:46:37;2.40;;;0.75;;
44764;SDS011;30484;52.382;5.260;2023-04-24T04:49:11;4.45;;;0.85;;
44764;SDS011;30484;52.382;5.260;2023-04-24T04:51:43;2.58;;;0.80;;
44764;SDS011;30484;52.382;5.260;2023-04-24T04:54:14;2.28;;;0.90;;
44764;SDS011;30484;52.382;5.260;2023-04-24T04:56:47;3.55;;;0.80;;
44764;SDS011;30484;52.382;5.260;2023-04-24T04:59:22;7.57;;;1.38;;
44764;SDS011;30484;52.382;5.260;2023-04-24T05:01:53;7.10;;;1.27;;
44764;SDS011;30484;52.382;5.260;2023-04-24T05:04:24;5.05;;;1.00;;
44764;SDS011;30484;52.382;5.260;2023-04-24T05:06:53;4.80;;;1.20;;
44764;SDS011;30484;52.382;5.260;2023-04-24T05:09:23;4.55;;;1.02;;
44764;SDS011;30484;52.382;5.260;2023-04-24T05:11:55;3.47;;;1.10;;
44764;SDS011;30484;52.382;5.260;2023-04-24T05:14:24;5.50;;;1.27;;
44764;SDS011;30484;52.382;5.260;2023-04-24T05:16:55;4.07;;;1.40;;
44764;SDS011;30484;52.382;5.260;2023-04-24T05:19:28;5.45;;;1.30;;
44764;SDS011;30484;52.382;5.260;2023-04-24T05:22:02;3.33;;;1.70;;
44764;SDS011;30484;52.382;5.260;2023-04-24T05:24:33;4.13;;;1.60;;
44764;SDS011;30484;52.382;5.260;2023-04-24T05:27:06;5.30;;;2.03;;
44764;SDS011;30484;52.382;5.260;2023-04-24T05:29:35;4.55;;;2.40;;
44764;SDS011;30484;52.382;5.260;2023-04-24T05:32:09;4.07;;;2.13;;
44764;SDS011;30484;52.382;5.260;2023-04-24T05:34:39;3.42;;;1.63;;
44764;SDS011;30484;52.382;5.260;2023-04-24T05:37:09;5.43;;;1.80;;
44764;SDS011;30484;52.382;5.260;2023-04-24T05:39:42;2.40;;;1.27;;
44764;SDS011;30484;52.382;5.260;2023-04-24T05:42:13;2.88;;;1.10;;
44764;SDS011;30484;52.382;5.260;2023-04-24T05:44:45;3.10;;;1.00;;
44764;SDS011;30484;52.382;5.260;2023-04-24T05:47:18;2.03;;;0.98;;
44764;SDS011;30484;52.382;5.260;2023-04-24T05:49:48;1.52;;;0.90;;
44764;SDS011;30484;52.382;5.260;2023-04-24T05:52:17;2.88;;;1.20;;
44764;SDS011;30484;52.382;5.260;2023-04-24T05:54:47;4.75;;;1.42;;
44764;SDS011;30484;52.382;5.260;2023-04-24T05:57:18;2.70;;;1.40;;
44764;SDS011;30484;52.382;5.260;2023-04-24T05:59:49;19.63;;;6.65;;
44764;SDS011;30484;52.382;5.260;2023-04-24T06:02:20;28.83;;;13.00;;
44764;SDS011;30484;52.382;5.260;2023-04-24T06:04:50;33.80;;;14.73;;
44764;SDS011;30484;52.382;5.260;2023-04-24T06:07:21;41.50;;;18.00;;
44764;SDS011;30484;52.382;5.260;2023-04-24T06:09:53;44.08;;;19.25;;
44764;SDS011;30484;52.382;5.260;2023-04-24T06:12:24;47.45;;;20.27;;
44764;SDS011;30484;52.382;5.260;2023-04-24T06:14:56;46.13;;;20.85;;
44764;SDS011;30484;52.382;5.260;2023-04-24T06:17:25;49.25;;;20.88;;
44764;SDS011;30484;52.382;5.260;2023-04-24T06:19:54;44.45;;;20.75;;
44764;SDS011;30484;52.382;5.260;2023-04-24T06:22:23;46.88;;;19.27;;
44764;SDS011;30484;52.382;5.260;2023-04-24T06:24:52;42.50;;;19.23;;
44764;SDS011;30484;52.382;5.260;2023-04-24T06:27:25;40.90;;;19.15;;
44764;SDS011;30484;52.382;5.260;2023-04-24T06:29:55;40.85;;;18.90;;
44764;SDS011;30484;52.382;5.260;2023-04-24T06:32:26;42.13;;;20.23;;
44764;SDS011;30484;52.382;5.260;2023-04-24T06:34:57;41.83;;;19.02;;
44764;SDS011;30484;52.382;5.260;2023-04-24T06:37:28;43.45;;;19.90;;
44764;SDS011;30484;52.382;5.260;2023-04-24T06:40:03;47.42;;;20.15;;
44764;SDS011;30484;52.382;5.260;2023-04-24T06:42:39;52.88;;;19.17;;
44764;SDS011;30484;52.382;5.260;2023-04-24T06:45:09;41.40;;;18.42;;
44764;SDS011;30484;52.382;5.260;2023-04-24T06:47:39;44.45;;;18.75;;
44764;SDS011;30484;52.382;5.260;2023-04-24T06:50:10;35.70;;;18.85;;
44764;SDS011;30484;52.382;5.260;2023-04-24T06:52:41;43.83;;;20.05;;
44764;SDS011;30484;52.382;5.260;2023-04-24T06:55:13;45.10;;;18.60;;
44764;SDS011;30484;52.382;5.260;2023-04-24T06:57:45;35.22;;;16.77;;
44764;SDS011;30484;52.382;5.260;2023-04-24T07:00:14;37.80;;;17.77;;
44764;SDS011;30484;52.382;5.260;2023-04-24T07:02:45;36.58;;;16.02;;
44764;SDS011;30484;52.382;5.260;2023-04-24T07:05:17;41.03;;;16.33;;
44764;SDS011;30484;52.382;5.260;2023-04-24T07:07:50;37.17;;;16.15;;
44764;SDS011;30484;52.382;5.260;2023-04-24T07:10:21;41.97;;;16.75;;
44764;SDS011;30484;52.382;5.260;2023-04-24T07:12:56;34.47;;;15.00;;
44764;SDS011;30484;52.382;5.260;2023-04-24T07:15:25;33.40;;;15.57;;
44764;SDS011;30484;52.382;5.260;2023-04-24T07:17:57;46.92;;;15.07;;
44764;SDS011;30484;52.382;5.260;2023-04-24T07:20:30;35.20;;;14.30;;
44764;SDS011;30484;52.382;5.260;2023-04-24T07:23:00;44.17;;;15.73;;
44764;SDS011;30484;52.382;5.260;2023-04-24T07:25:30;35.17;;;14.13;;
44764;SDS011;30484;52.382;5.260;2023-04-24T07:28:04;36.90;;;13.05;;
44764;SDS011;30484;52.382;5.260;2023-04-24T07:30:36;30.77;;;14.00;;
44764;SDS011;30484;52.382;5.260;2023-04-24T07:33:06;33.90;;;13.82;;
44764;SDS011;30484;52.382;5.260;2023-04-24T07:35:39;35.58;;;14.93;;
44764;SDS011;30484;52.382;5.260;2023-04-24T07:38:09;46.33;;;15.10;;
44764;SDS011;30484;52.382;5.260;2023-04-24T07:40:39;37.67;;;15.32;;
44764;SDS011;30484;52.382;5.260;2023-04-24T07:43:14;40.55;;;13.77;;
44764;SDS011;30484;52.382;5.260;2023-04-24T07:45:43;37.97;;;13.50;;
44764;SDS011;30484;52.382;5.260;2023-04-24T07:48:16;34.72;;;13.65;;
44764;SDS011;30484;52.382;5.260;2023-04-24T07:50:45;39.15;;;13.77;;
44764;SDS011;30484;52.382;5.260;2023-04-24T07:53:16;33.30;;;12.63;;
44764;SDS011;30484;52.382;5.260;2023-04-24T07:55:46;32.45;;;12.75;;
44764;SDS011;30484;52.382;5.260;2023-04-24T07:58:17;34.83;;;12.43;;
44764;SDS011;30484;52.382;5.260;2023-04-24T08:00:47;34.10;;;12.60;;
44764;SDS011;30484;52.382;5.260;2023-04-24T08:03:17;27.23;;;10.40;;
44764;SDS011;30484;52.382;5.260;2023-04-24T08:05:47;30.83;;;8.93;;
44764;SDS011;30484;52.382;5.260;2023-04-24T08:08:20;28.13;;;7.70;;
44764;SDS011;30484;52.382;5.260;2023-04-24T08:10:51;38.40;;;8.00;;
44764;SDS011;30484;52.382;5.260;2023-04-24T08:13:24;38.05;;;6.55;;
44764;SDS011;30484;52.382;5.260;2023-04-24T08:15:53;33.58;;;6.30;;
44764;SDS011;30484;52.382;5.260;2023-04-24T08:18:24;47.50;;;6.28;;
44764;SDS011;30484;52.382;5.260;2023-04-24T08:20:53;29.67;;;5.97;;
44764;SDS011;30484;52.382;5.260;2023-04-24T08:23:28;47.95;;;6.18;;
44764;SDS011;30484;52.382;5.260;2023-04-24T08:26:01;31.70;;;4.80;;
44764;SDS011;30484;52.382;5.260;2023-04-24T08:28:33;31.67;;;5.25;;
44764;SDS011;30484;52.382;5.260;2023-04-24T08:31:04;40.45;;;6.35;;
44764;SDS011;30484;52.382;5.260;2023-04-24T08:33:34;32.50;;;5.53;;
44764;SDS011;30484;52.382;5.260;2023-04-24T08:36:04;30.48;;;5.60;;
44764;SDS011;30484;52.382;5.260;2023-04-24T08:38:36;37.78;;;5.15;;
44764;SDS011;30484;52.382;5.260;2023-04-24T08:41:09;29.30;;;4.85;;
44764;SDS011;30484;52.382;5.260;2023-04-24T08:43:41;28.60;;;4.90;;
44764;SDS011;30484;52.382;5.260;2023-04-24T08:46:16;24.67;;;4.20;;
44764;SDS011;30484;52.382;5.260;2023-04-24T08:48:47;23.38;;;3.85;;
44764;SDS011;30484;52.382;5.260;2023-04-24T08:51:18;25.20;;;3.88;;
44764;SDS011;30484;52.382;5.260;2023-04-24T08:53:49;31.90;;;4.30;;
44764;SDS011;30484;52.382;5.260;2023-04-24T08:56:25;26.15;;;4.47;;
44764;SDS011;30484;52.382;5.260;2023-04-24T08:58:58;21.52;;;3.78;;
44764;SDS011;30484;52.382;5.260;2023-04-24T09:01:28;27.10;;;4.45;;
44764;SDS011;30484;52.382;5.260;2023-04-24T09:04:00;19.52;;;3.47;;
44764;SDS011;30484;52.382;5.260;2023-04-24T09:06:32;22.48;;;3.47;;
44764;SDS011;30484;52.382;5.260;2023-04-24T09:09:02;24.23;;;3.95;;
44764;SDS011;30484;52.382;5.260;2023-04-24T09:11:32;19.88;;;3.60;;
44764;SDS011;30484;52.382;5.260;2023-04-24T09:14:07;25.40;;;3.00;;
44764;SDS011;30484;52.382;5.260;2023-04-24T09:16:42;23.70;;;3.45;;
44764;SDS011;30484;52.382;5.260;2023-04-24T09:19:13;25.02;;;3.42;;
44764;SDS011;30484;52.382;5.260;2023-04-24T09:21:44;19.48;;;3.13;;
44764;SDS011;30484;52.382;5.260;2023-04-24T09:24:15;13.30;;;2.67;;
44764;SDS011;30484;52.382;5.260;2023-04-24T09:29:38;21.40;;;2.90;;
44764;SDS011;30484;52.382;5.260;2023-04-24T09:32:17;16.85;;;2.70;;
44764;SDS011;30484;52.382;5.260;2023-04-24T09:35:04;16.23;;;2.75;;
44764;SDS011;30484;52.382;5.260;2023-04-24T09:37:41;19.58;;;2.70;;
44764;SDS011;30484;52.382;5.260;2023-04-24T09:40:16;13.77;;;3.00;;
44764;SDS011;30484;52.382;5.260;2023-04-24T09:42:58;18.20;;;3.63;;
44764;SDS011;30484;52.382;5.260;2023-04-24T09:45:34;17.60;;;2.63;;
44764;SDS011;30484;52.382;5.260;2023-04-24T09:48:04;17.63;;;2.90;;
44764;SDS011;30484;52.382;5.260;2023-04-24T09:50:38;13.93;;;3.15;;
44764;SDS011;30484;52.382;5.260;2023-04-24T09:53:07;10.02;;;2.95;;
44764;SDS011;30484;52.382;5.260;2023-04-24T09:55:38;16.50;;;2.42;;
44764;SDS011;30484;52.382;5.260;2023-04-24T09:58:17;17.63;;;2.72;;
44764;SDS011;30484;52.382;5.260;2023-04-24T10:00:47;18.70;;;3.05;;
44764;SDS011;30484;52.382;5.260;2023-04-24T10:03:17;11.35;;;2.58;;
44764;SDS011;30484;52.382;5.260;2023-04-24T10:05:47;16.98;;;2.72;;
44764;SDS011;30484;52.382;5.260;2023-04-24T10:08:16;17.20;;;2.97;;
44764;SDS011;30484;52.382;5.260;2023-04-24T10:10:46;12.15;;;1.92;;
44764;SDS011;30484;52.382;5.260;2023-04-24T10:13:14;21.88;;;2.58;;
44764;SDS011;30484;52.382;5.260;2023-04-24T10:15:44;14.77;;;2.35;;
44764;SDS011;30484;52.382;5.260;2023-04-24T10:18:18;9.77;;;2.10;;
44764;SDS011;30484;52.382;5.260;2023-04-24T10:20:51;11.70;;;2.30;;
44764;SDS011;30484;52.382;5.260;2023-04-24T10:23:37;10.35;;;1.98;;
44764;SDS011;30484;52.382;5.260;2023-04-24T10:26:11;9.07;;;1.70;;
44764;SDS011;30484;52.382;5.260;2023-04-24T10:28:44;15.25;;;2.13;;
44764;SDS011;30484;52.382;5.260;2023-04-24T10:31:15;11.10;;;2.08;;
44764;SDS011;30484;52.382;5.260;2023-04-24T10:33:49;7.13;;;1.70;;
44764;SDS011;30484;52.382;5.260;2023-04-24T10:36:20;6.63;;;1.60;;
44764;SDS011;30484;52.382;5.260;2023-04-24T10:38:54;11.68;;;2.50;;
44764;SDS011;30484;52.382;5.260;2023-04-24T10:41:28;5.53;;;1.52;;
44764;SDS011;30484;52.382;5.260;2023-04-24T10:44:05;6.82;;;1.80;;
44764;SDS011;30484;52.382;5.260;2023-04-24T10:46:36;14.10;;;2.72;;
44764;SDS011;30484;52.382;5.260;2023-04-24T10:49:09;6.82;;;1.52;;
44764;SDS011;30484;52.382;5.260;2023-04-24T10:51:44;17.92;;;2.08;;
44764;SDS011;30484;52.382;5.260;2023-04-24T10:54:24;3.83;;;1.33;;
44764;SDS011;30484;52.382;5.260;2023-04-24T11:00:15;11.77;;;1.58;;
44764;SDS011;30484;52.382;5.260;2023-04-24T11:03:00;7.93;;;1.48;;
44764;SDS011;30484;52.382;5.260;2023-04-24T11:08:32;7.37;;;1.43;;
44764;SDS011;30484;52.382;5.260;2023-04-24T11:11:11;13.23;;;1.58;;
44764;SDS011;30484;52.382;5.260;2023-04-24T11:14:05;12.20;;;2.30;;
44764;SDS011;30484;52.382;5.260;2023-04-24T11:16:44;9.32;;;1.80;;
44764;SDS011;30484;52.382;5.260;2023-04-24T11:19:23;9.98;;;1.52;;
44764;SDS011;30484;52.382;5.260;2023-04-24T11:21:59;6.82;;;1.55;;
44764;SDS011;30484;52.382;5.260;2023-04-24T11:24:37;9.85;;;1.80;;
44764;SDS011;30484;52.382;5.260;2023-04-24T11:27:18;6.15;;;1.30;;
44764;SDS011;30484;52.382;5.260;2023-04-24T11:29:58;5.32;;;1.15;;
44764;SDS011;30484;52.382;5.260;2023-04-24T11:32:33;6.53;;;1.45;;
44764;SDS011;30484;52.382;5.260;2023-04-24T11:35:07;6.57;;;1.20;;
44764;SDS011;30484;52.382;5.260;2023-04-24T11:37:45;6.22;;;1.23;;
44764;SDS011;30484;52.382;5.260;2023-04-24T11:40:39;9.70;;;1.58;;
44764;SDS011;30484;52.382;5.260;2023-04-24T11:43:08;9.88;;;1.10;;
44764;SDS011;30484;52.382;5.260;2023-04-24T11:45:37;10.18;;;1.95;;
44764;SDS011;30484;52.382;5.260;2023-04-24T11:48:18;4.93;;;1.08;;
44764;SDS011;30484;52.382;5.260;2023-04-24T11:50:51;9.93;;;1.42;;
44764;SDS011;30484;52.382;5.260;2023-04-24T11:53:24;7.25;;;1.25;;
44764;SDS011;30484;52.382;5.260;2023-04-24T11:55:56;10.15;;;1.50;;
44764;SDS011;30484;52.382;5.260;2023-04-24T11:58:34;10.88;;;1.88;;
44764;SDS011;30484;52.382;5.260;2023-04-24T12:01:04;8.05;;;1.15;;
44764;SDS011;30484;52.382;5.260;2023-04-24T12:03:35;13.00;;;1.40;;
44764;SDS011;30484;52.382;5.260;2023-04-24T12:06:11;8.07;;;1.83;;
44764;SDS011;30484;52.382;5.260;2023-04-24T12:08:47;7.75;;;1.13;;
44764;SDS011;30484;52.382;5.260;2023-04-24T12:11:19;8.90;;;1.38;;
44764;SDS011;30484;52.382;5.260;2023-04-24T12:13:48;8.30;;;1.45;;
44764;SDS011;30484;52.382;5.260;2023-04-24T12:16:18;14.35;;;1.92;;
44764;SDS011;30484;52.382;5.260;2023-04-24T12:18:47;8.80;;;1.75;;
44764;SDS011;30484;52.382;5.260;2023-04-24T12:21:25;13.30;;;2.38;;
44764;SDS011;30484;52.382;5.260;2023-04-24T12:24:05;10.32;;;2.13;;
44764;SDS011;30484;52.382;5.260;2023-04-24T12:29:08;10.65;;;2.05;;
44764;SDS011;30484;52.382;5.260;2023-04-24T12:31:39;10.32;;;1.80;;
44764;SDS011;30484;52.382;5.260;2023-04-24T12:34:17;13.73;;;1.95;;
44764;SDS011;30484;52.382;5.260;2023-04-24T12:36:48;13.65;;;1.67;;
44764;SDS011;30484;52.382;5.260;2023-04-24T12:39:19;14.18;;;2.08;;
44764;SDS011;30484;52.382;5.260;2023-04-24T12:41:54;14.45;;;2.17;;
44764;SDS011;30484;52.382;5.260;2023-04-24T12:44:30;14.77;;;2.42;;
44764;SDS011;30484;52.382;5.260;2023-04-24T12:47:01;11.77;;;2.63;;
44764;SDS011;30484;52.382;5.260;2023-04-24T12:49:34;15.05;;;2.35;;
44764;SDS011;30484;52.382;5.260;2023-04-24T12:52:04;16.85;;;2.88;;
44764;SDS011;30484;52.382;5.260;2023-04-24T12:54:36;18.25;;;2.95;;
44764;SDS011;30484;52.382;5.260;2023-04-24T12:57:07;15.48;;;2.85;;
44764;SDS011;30484;52.382;5.260;2023-04-24T12:59:38;18.50;;;3.00;;
44764;SDS011;30484;52.382;5.260;2023-04-24T13:02:08;20.00;;;3.03;;
44764;SDS011;30484;52.382;5.260;2023-04-24T13:04:37;16.80;;;3.15;;
44764;SDS011;30484;52.382;5.260;2023-04-24T13:07:08;18.50;;;3.17;;
44764;SDS011;30484;52.382;5.260;2023-04-24T13:09:38;22.20;;;3.80;;
44764;SDS011;30484;52.382;5.260;2023-04-24T13:12:13;18.95;;;3.00;;
44764;SDS011;30484;52.382;5.260;2023-04-24T13:14:46;19.75;;;3.00;;
44764;SDS011;30484;52.382;5.260;2023-04-24T13:17:18;14.38;;;2.42;;
44764;SDS011;30484;52.382;5.260;2023-04-24T13:19:49;20.70;;;3.58;;
44764;SDS011;30484;52.382;5.260;2023-04-24T13:22:29;27.05;;;3.80;;
44764;SDS011;30484;52.382;5.260;2023-04-24T13:25:01;20.15;;;3.35;;
44764;SDS011;30484;52.382;5.260;2023-04-24T13:27:48;22.70;;;3.78;;
44764;SDS011;30484;52.382;5.260;2023-04-24T13:30:19;32.90;;;4.10;;
44764;SDS011;30484;52.382;5.260;2023-04-24T13:32:50;20.13;;;4.00;;
44764;SDS011;30484;52.382;5.260;2023-04-24T13:35:25;26.65;;;4.72;;
44764;SDS011;30484;52.382;5.260;2023-04-24T13:37:57;20.13;;;3.97;;
44764;SDS011;30484;52.382;5.260;2023-04-24T13:40:29;25.50;;;4.60;;
44764;SDS011;30484;52.382;5.260;2023-04-24T13:42:59;22.90;;;4.45;;
44764;SDS011;30484;52.382;5.260;2023-04-24T13:45:29;18.27;;;4.03;;
44764;SDS011;30484;52.382;5.260;2023-04-24T13:47:59;13.98;;;3.38;;
44764;SDS011;30484;52.382;5.260;2023-04-24T13:50:30;26.77;;;3.83;;
44764;SDS011;30484;52.382;5.260;2023-04-24T13:53:03;13.63;;;3.63;;
44764;SDS011;30484;52.382;5.260;2023-04-24T13:55:45;15.73;;;3.45;;
44764;SDS011;30484;52.382;5.260;2023-04-24T13:58:19;14.68;;;2.55;;
44764;SDS011;30484;52.382;5.260;2023-04-24T14:00:49;11.55;;;2.20;;
44764;SDS011;30484;52.382;5.260;2023-04-24T14:03:19;13.27;;;2.55;;
44764;SDS011;30484;52.382;5.260;2023-04-24T14:05:49;10.13;;;2.30;;
44764;SDS011;30484;52.382;5.260;2023-04-24T14:08:18;11.02;;;2.63;;
44764;SDS011;30484;52.382;5.260;2023-04-24T14:10:50;12.05;;;2.92;;
44764;SDS011;30484;52.382;5.260;2023-04-24T14:13:22;12.38;;;3.42;;
44764;SDS011;30484;52.382;5.260;2023-04-24T14:15:52;15.50;;;2.67;;
44764;SDS011;30484;52.382;5.260;2023-04-24T14:18:22;13.55;;;2.95;;
44764;SDS011;30484;52.382;5.260;2023-04-24T14:20:52;16.20;;;2.72;;
44764;SDS011;30484;52.382;5.260;2023-04-24T14:23:21;14.50;;;3.00;;
44764;SDS011;30484;52.382;5.260;2023-04-24T14:25:52;14.18;;;2.92;;
44764;SDS011;30484;52.382;5.260;2023-04-24T14:28:23;10.80;;;2.47;;
44764;SDS011;30484;52.382;5.260;2023-04-24T14:30:54;12.55;;;2.70;;
44764;SDS011;30484;52.382;5.260;2023-04-24T14:33:24;17.02;;;3.47;;
44764;SDS011;30484;52.382;5.260;2023-04-24T14:35:53;11.98;;;2.85;;
44764;SDS011;30484;52.382;5.260;2023-04-24T14:38:24;13.43;;;2.83;;
44764;SDS011;30484;52.382;5.260;2023-04-24T14:40:58;17.05;;;3.33;;
44764;SDS011;30484;52.382;5.260;2023-04-24T14:43:40;18.27;;;3.38;;
44764;SDS011;30484;52.382;5.260;2023-04-24T14:46:13;17.73;;;3.10;;
44764;SDS011;30484;52.382;5.260;2023-04-24T14:48:43;12.25;;;3.20;;
44764;SDS011;30484;52.382;5.260;2023-04-24T14:51:15;16.27;;;3.47;;
44764;SDS011;30484;52.382;5.260;2023-04-24T14:53:47;17.85;;;3.83;;
44764;SDS011;30484;52.382;5.260;2023-04-24T14:56:18;13.90;;;3.33;;
44764;SDS011;30484;52.382;5.260;2023-04-24T14:58:49;16.67;;;3.17;;
44764;SDS011;30484;52.382;5.260;2023-04-24T15:01:19;20.23;;;3.53;;
44764;SDS011;30484;52.382;5.260;2023-04-24T15:03:49;20.83;;;4.28;;
44764;SDS011;30484;52.382;5.260;2023-04-24T15:06:22;13.48;;;3.28;;
44764;SDS011;30484;52.382;5.260;2023-04-24T15:08:52;13.18;;;3.60;;
44764;SDS011;30484;52.382;5.260;2023-04-24T15:11:25;15.85;;;3.08;;
44764;SDS011;30484;52.382;5.260;2023-04-24T15:13:55;16.17;;;3.58;;
44764;SDS011;30484;52.382;5.260;2023-04-24T15:16:26;15.80;;;3.28;;
44764;SDS011;30484;52.382;5.260;2023-04-24T15:18:57;13.73;;;3.67;;